Time;durP1;ratioP1;P1;durP2;ratioP2;P2;SDS_P1;SDS_P2;PMS_P1;PMS_P2;Temp;Humidity;BMP_temperature;BMP_pressure;BME280_temperature;BME280_humidity;BME280_pressure;Samples;Min_cycle;Max_cycle;Signal;HPM_P1;HPM_P2
2023/12/27 00:00:36;;;;;;;18.08;10.27;;;8.60;74.60;;;;;;5055571;28;20029;-64
2023/12/27 00:03:02;;;;;;;17.58;8.95;;;8.60;74.60;;;;;;5056571;28;20021;-64
2023/12/27 00:05:28;;;;;;;17.02;9.48;;;8.60;74.60;;;;;;5054777;28;20635;-65
2023/12/27 00:07:54;;;;;;;14.10;9.10;;;8.60;74.60;;;;;;5055477;28;20401;-64
2023/12/27 00:10:20;;;;;;;18.25;9.55;;;8.60;74.70;;;;;;5055405;28;20025;-65
2023/12/27 00:12:46;;;;;;;15.23;8.85;;;8.60;74.70;;;;;;5054654;28;20385;-65
2023/12/27 00:15:11;;;;;;;17.88;8.38;;;8.50;74.60;;;;;;5054593;28;20037;-64
2023/12/27 00:17:37;;;;;;;16.27;8.15;;;8.50;74.60;;;;;;5055180;28;20025;-64
2023/12/27 00:20:03;;;;;;;15.70;8.48;;;8.50;74.60;;;;;;5053984;28;20036;-64
2023/12/27 00:22:29;;;;;;;14.15;7.80;;;8.50;74.60;;;;;;5055196;28;20035;-64
2023/12/27 00:24:55;;;;;;;13.80;7.50;;;8.40;74.60;;;;;;5055722;28;20405;-64
2023/12/27 00:27:21;;;;;;;13.27;7.20;;;8.40;75.00;;;;;;5052583;28;20509;-64
2023/12/27 00:29:46;;;;;;;13.60;7.63;;;8.40;74.60;;;;;;5054014;28;20029;-64
2023/12/27 00:32:12;;;;;;;12.90;7.18;;;8.40;74.60;;;;;;5054775;28;20032;-65
2023/12/27 00:34:38;;;;;;;12.80;7.00;;;8.40;74.60;;;;;;5053990;28;20056;-64
2023/12/27 00:37:05;;;;;;;16.15;7.90;;;8.30;74.50;;;;;;5054633;28;20442;-64
2023/12/27 00:39:31;;;;;;;12.77;7.28;;;8.30;74.50;;;;;;5055215;28;20027;-65
2023/12/27 00:41:57;;;;;;;18.35;7.85;;;8.30;74.50;;;;;;5059811;28;20120;-64
2023/12/27 00:44:23;;;;;;;13.80;7.97;;;8.20;74.40;;;;;;5055262;28;20021;-64
2023/12/27 00:46:49;;;;;;;15.50;8.00;;;8.20;74.40;;;;;;5053626;28;20099;-64
2023/12/27 00:49:16;;;;;;;13.93;7.35;;;8.20;74.40;;;;;;5054890;28;20083;-64
2023/12/27 00:51:42;;;;;;;11.93;7.13;;;8.20;74.40;;;;;;5054947;28;20370;-64
2023/12/27 00:54:08;;;;;;;12.70;7.35;;;8.10;74.40;;;;;;5053058;28;20032;-64
2023/12/27 00:56:33;;;;;;;13.73;6.97;;;8.10;74.30;;;;;;5036238;28;20032;-64
2023/12/27 00:58:59;;;;;;;12.40;7.50;;;8.10;74.30;;;;;;5054020;28;20473;-64
2023/12/27 01:01:25;;;;;;;13.80;7.50;;;8.10;74.30;;;;;;5054039;28;20381;-65
2023/12/27 01:03:51;;;;;;;15.25;7.25;;;8.10;74.30;;;;;;5037202;28;20056;-64
2023/12/27 01:06:17;;;;;;;13.23;7.40;;;8.00;74.20;;;;;;5052605;28;20079;-64
2023/12/27 01:08:43;;;;;;;12.18;6.78;;;8.00;74.30;;;;;;5052158;28;20612;-64
2023/12/27 01:11:09;;;;;;;11.50;6.28;;;8.00;74.20;;;;;;5053460;28;20442;-64
2023/12/27 01:13:34;;;;;;;12.75;7.03;;;8.00;74.30;;;;;;5054398;28;20452;-64
2023/12/27 01:16:00;;;;;;;12.85;6.70;;;7.90;74.20;;;;;;5054262;28;20029;-64
2023/12/27 01:18:26;;;;;;;14.35;7.80;;;7.90;74.20;;;;;;5053394;28;20021;-64
2023/12/27 01:20:52;;;;;;;11.40;6.82;;;7.90;74.20;;;;;;5052582;28;20086;-64
2023/12/27 01:23:18;;;;;;;15.25;7.40;;;7.90;74.20;;;;;;5053142;28;20032;-64
2023/12/27 01:25:43;;;;;;;13.00;7.47;;;7.90;74.20;;;;;;5053334;28;20017;-65
2023/12/27 01:28:09;;;;;;;12.52;7.05;;;7.90;74.20;;;;;;5053329;28;20029;-64
2023/12/27 01:30:35;;;;;;;12.98;6.60;;;7.90;74.20;;;;;;5053098;28;20508;-64
2023/12/27 01:33:03;;;;;;;15.60;6.38;;;7.90;74.20;;;;;;5052634;28;20020;-64
2023/12/27 01:35:28;;;;;;;14.50;7.22;;;7.90;74.30;;;;;;5052863;28;20031;-64
2023/12/27 01:37:54;;;;;;;13.15;6.97;;;7.90;74.20;;;;;;5053130;28;20025;-64
2023/12/27 01:40:21;;;;;;;15.00;7.30;;;7.90;74.30;;;;;;5053207;28;20071;-64
2023/12/27 01:42:47;;;;;;;13.23;6.55;;;7.80;74.30;;;;;;5054683;28;20115;-64
2023/12/27 01:45:12;;;;;;;14.48;7.65;;;7.80;74.30;;;;;;5053077;28;20033;-64
2023/12/27 01:47:38;;;;;;;14.15;7.57;;;7.80;74.40;;;;;;5053032;28;20051;-64
2023/12/27 01:50:09;;;;;;;14.20;7.55;;;7.80;74.40;;;;;;5052304;28;20025;-64
2023/12/27 01:52:36;;;;;;;14.35;7.55;;;7.90;74.50;;;;;;5051327;28;20013;-64
2023/12/27 01:55:01;;;;;;;12.60;7.03;;;7.90;74.50;;;;;;5053813;28;20503;-64
2023/12/27 01:57:28;;;;;;;13.00;7.57;;;7.90;74.50;;;;;;5053522;28;20020;-64
2023/12/27 01:59:54;;;;;;;12.77;7.25;;;7.80;74.50;;;;;;5053497;28;20061;-64
2023/12/27 02:02:22;;;;;;;14.70;7.93;;;7.80;74.60;;;;;;5052329;28;20103;-64
2023/12/27 02:04:48;;;;;;;11.75;6.82;;;7.90;74.70;;;;;;5052097;28;20044;-64
2023/12/27 02:07:14;;;;;;;16.33;7.50;;;7.80;74.70;;;;;;5049186;28;20024;-64
2023/12/27 02:09:40;;;;;;;12.77;7.55;;;7.80;74.70;;;;;;5053379;28;20032;-64
2023/12/27 02:12:07;;;;;;;13.02;7.00;;;7.90;74.80;;;;;;5035054;28;20114;-64
2023/12/27 02:14:33;;;;;;;14.90;7.25;;;7.80;74.70;;;;;;5053637;28;20419;-64
2023/12/27 02:17:00;;;;;;;12.68;6.93;;;7.80;74.80;;;;;;5051524;28;20056;-64
2023/12/27 02:19:28;;;;;;;11.52;6.82;;;7.80;74.90;;;;;;5034071;28;20029;-64
2023/12/27 02:21:54;;;;;;;12.45;7.03;;;7.80;74.90;;;;;;5052914;28;20095;-64
2023/12/27 02:24:22;;;;;;;13.13;6.70;;;7.80;74.90;;;;;;5053303;28;20079;-64
2023/12/27 02:26:48;;;;;;;15.20;6.70;;;7.80;74.90;;;;;;5053011;28;20053;-64
2023/12/27 02:29:14;;;;;;;15.10;8.70;;;7.80;74.90;;;;;;5051156;28;20036;-64
2023/12/27 02:31:40;;;;;;;16.80;7.15;;;7.80;74.90;;;;;;5052621;28;20124;-64
2023/12/27 02:34:06;;;;;;;13.13;7.80;;;7.80;75.10;;;;;;5052396;28;20029;-64
2023/12/27 02:36:32;;;;;;;13.07;7.18;;;7.80;75.00;;;;;;5051872;28;20033;-64
2023/12/27 02:38:58;;;;;;;14.32;7.18;;;7.70;74.90;;;;;;5051426;28;20468;-64
2023/12/27 02:41:23;;;;;;;12.27;7.35;;;7.80;75.00;;;;;;5052601;28;20045;-64
2023/12/27 02:43:49;;;;;;;13.30;7.03;;;7.70;75.00;;;;;;5052453;28;20032;-64
2023/12/27 02:46:15;;;;;;;11.43;6.82;;;7.70;75.00;;;;;;5052975;28;20040;-64
2023/12/27 02:48:41;;;;;;;13.82;6.80;;;7.70;75.00;;;;;;5051566;28;20484;-64
2023/12/27 02:51:07;;;;;;;13.82;6.85;;;7.70;75.10;;;;;;5052648;28;20025;-64
2023/12/27 02:53:32;;;;;;;12.98;7.63;;;7.70;75.10;;;;;;5052980;28;20246;-64
2023/12/27 02:55:58;;;;;;;12.80;6.75;;;7.70;75.10;;;;;;5051469;28;20505;-64
2023/12/27 02:58:24;;;;;;;12.73;7.30;;;7.70;75.10;;;;;;5036478;28;20067;-64
2023/12/27 03:00:50;;;;;;;15.45;6.82;;;7.70;75.10;;;;;;5055722;28;20025;-64
2023/12/27 03:03:16;;;;;;;12.23;6.97;;;7.70;75.10;;;;;;5039106;28;20349;-64
2023/12/27 03:05:42;;;;;;;16.20;7.82;;;7.70;75.10;;;;;;5056774;28;20025;-64
2023/12/27 03:08:07;;;;;;;12.73;7.28;;;7.70;75.10;;;;;;5055656;28;20017;-64
2023/12/27 03:10:33;;;;;;;14.18;7.78;;;7.70;75.20;;;;;;5056616;28;20032;-64
2023/12/27 03:12:59;;;;;;;11.93;7.07;;;7.70;75.20;;;;;;5055289;28;20074;-64
2023/12/27 03:15:25;;;;;;;14.40;7.40;;;7.70;75.30;;;;;;5055993;28;20079;-64
2023/12/27 03:17:50;;;;;;;12.95;7.22;;;7.70;75.30;;;;;;5055703;28;20102;-64
2023/12/27 03:20:16;;;;;;;13.25;7.15;;;7.70;75.30;;;;;;5056501;28;20087;-64
2023/12/27 03:22:42;;;;;;;12.05;7.45;;;7.70;75.40;;;;;;5056375;28;20346;-65
2023/12/27 03:25:08;;;;;;;13.55;7.70;;;7.70;75.40;;;;;;5054332;28;20380;-64
2023/12/27 03:27:33;;;;;;;14.18;7.00;;;7.60;75.40;;;;;;5053963;28;20100;-64
2023/12/27 03:29:59;;;;;;;14.32;7.55;;;7.70;75.40;;;;;;5056372;28;20025;-64
2023/12/27 03:32:25;;;;;;;16.58;7.93;;;7.70;75.50;;;;;;5055818;28;20453;-64
2023/12/27 03:34:51;;;;;;;15.93;7.57;;;7.70;75.50;;;;;;5056479;28;20025;-64
2023/12/27 03:37:17;;;;;;;13.85;6.47;;;7.70;76.30;;;;;;5055038;28;20036;-64
2023/12/27 03:39:46;;;;;;;12.57;6.82;;;7.70;75.70;;;;;;5054254;28;20035;-64
2023/12/27 03:42:12;;;;;;;12.20;6.82;;;7.80;75.80;;;;;;5055315;28;20323;-64
2023/12/27 03:44:39;;;;;;;13.32;7.03;;;7.80;75.80;;;;;;5056081;28;20434;-64
2023/12/27 03:47:05;;;;;;;11.60;6.95;;;7.80;75.80;;;;;;5055154;28;20087;-64
2023/12/27 03:49:30;;;;;;;11.68;6.55;;;7.80;75.90;;;;;;5055287;28;20037;-64
2023/12/27 03:51:56;;;;;;;11.88;7.28;;;7.80;76.00;;;;;;5054987;28;20040;-64
2023/12/27 03:54:23;;;;;;;15.70;7.20;;;7.80;76.00;;;;;;5055128;28;20082;-64
2023/12/27 03:56:48;;;;;;;12.88;6.40;;;7.80;76.00;;;;;;5055953;28;20041;-64
2023/12/27 03:59:14;;;;;;;13.65;6.80;;;7.90;76.10;;;;;;5056019;28;20155;-64
2023/12/27 04:01:40;;;;;;;12.25;7.05;;;7.90;76.10;;;;;;5054222;28;20025;-64
2023/12/27 04:04:07;;;;;;;16.63;6.95;;;7.90;76.20;;;;;;5054897;28;20094;-64
2023/12/27 04:06:33;;;;;;;10.43;6.15;;;7.90;76.30;;;;;;5055066;28;20111;-64
2023/12/27 04:08:59;;;;;;;13.10;7.53;;;7.90;76.30;;;;;;5054427;28;20021;-64
2023/12/27 04:11:24;;;;;;;12.30;6.90;;;7.90;76.40;;;;;;5054356;28;20035;-64
2023/12/27 04:13:50;;;;;;;12.23;6.50;;;7.90;76.40;;;;;;5051592;28;20043;-64
2023/12/27 04:16:16;;;;;;;13.73;6.35;;;7.90;76.40;;;;;;5055410;28;20453;-64
2023/12/27 04:18:41;;;;;;;14.20;6.65;;;7.90;76.40;;;;;;5053210;28;20035;-64
2023/12/27 04:21:07;;;;;;;11.98;6.68;;;8.00;76.50;;;;;;5055741;28;20112;-64
2023/12/27 04:23:33;;;;;;;14.75;7.38;;;8.00;76.50;;;;;;5054583;28;20029;-64
2023/12/27 04:25:59;;;;;;;12.05;6.15;;;7.90;76.50;;;;;;5034670;28;20107;-64
2023/12/27 04:28:25;;;;;;;13.90;6.97;;;8.00;76.60;;;;;;5035723;28;20032;-64
2023/12/27 04:30:50;;;;;;;12.93;7.13;;;8.00;76.70;;;;;;5058613;28;20040;-64
2023/12/27 04:33:16;;;;;;;13.65;6.82;;;8.00;76.70;;;;;;5050090;28;20647;-64
2023/12/27 04:35:43;;;;;;;11.63;6.93;;;8.00;76.70;;;;;;5043474;28;20095;-64
2023/12/27 04:38:13;;;;;;;12.05;6.72;;;8.00;76.70;;;;;;5043268;28;20033;-64
2023/12/27 04:40:43;;;;;;;16.58;8.02;;;8.00;76.70;;;;;;5045488;28;20037;-64
2023/12/27 04:43:09;;;;;;;14.35;7.38;;;8.00;76.80;;;;;;5049872;28;20458;-65
2023/12/27 04:45:35;;;;;;;13.48;6.38;;;8.00;76.80;;;;;;5050791;28;20094;-64
2023/12/27 04:48:01;;;;;;;12.20;7.10;;;8.00;76.90;;;;;;5046930;28;20446;-64
2023/12/27 04:50:27;;;;;;;15.02;7.88;;;8.00;77.00;;;;;;5040811;28;20028;-64
2023/12/27 04:52:52;;;;;;;13.88;7.10;;;8.00;77.00;;;;;;5043016;28;20026;-64
2023/12/27 04:55:18;;;;;;;13.60;6.80;;;8.00;77.10;;;;;;5033027;28;20036;-64
2023/12/27 04:57:44;;;;;;;12.02;7.32;;;8.00;77.10;;;;;;5048223;28;20040;-64
2023/12/27 05:00:10;;;;;;;14.90;7.78;;;8.10;77.20;;;;;;5035723;28;20029;-64
2023/12/27 05:02:36;;;;;;;13.85;7.85;;;8.00;77.20;;;;;;5034008;28;20017;-64
2023/12/27 05:05:02;;;;;;;14.05;6.90;;;8.10;77.20;;;;;;5046756;28;20129;-64
2023/12/27 05:07:28;;;;;;;12.95;6.30;;;8.10;77.20;;;;;;5046275;28;20357;-64
2023/12/27 05:09:54;;;;;;;18.85;7.85;;;8.20;77.30;;;;;;5045103;28;20025;-64
2023/12/27 05:12:20;;;;;;;13.18;6.85;;;8.20;77.30;;;;;;5032270;28;20032;-64
2023/12/27 05:14:46;;;;;;;15.88;7.65;;;8.20;77.30;;;;;;5050877;28;20116;-64
2023/12/27 05:17:12;;;;;;;13.90;6.53;;;8.20;77.30;;;;;;5046442;28;20060;-64
2023/12/27 05:19:39;;;;;;;15.43;6.75;;;8.20;77.40;;;;;;5054786;28;20079;-64
2023/12/27 05:22:05;;;;;;;14.38;6.78;;;8.20;77.40;;;;;;5035988;28;20052;-64
2023/12/27 05:24:30;;;;;;;16.27;6.75;;;8.30;77.50;;;;;;5043676;28;20091;-64
2023/12/27 05:26:56;;;;;;;15.25;6.70;;;8.30;77.60;;;;;;5041337;28;20041;-64
2023/12/27 05:29:22;;;;;;;14.95;6.40;;;8.30;77.60;;;;;;5044165;28;20029;-64
2023/12/27 05:31:48;;;;;;;14.85;6.28;;;8.30;77.60;;;;;;5051490;28;20120;-64
2023/12/27 05:34:13;;;;;;;12.98;7.00;;;8.30;77.70;;;;;;5037776;28;20455;-64
2023/12/27 05:36:39;;;;;;;13.07;6.20;;;8.30;77.70;;;;;;5038237;28;20449;-64
2023/12/27 05:39:06;;;;;;;14.63;6.78;;;8.30;77.70;;;;;;5050431;28;21037;-64
2023/12/27 05:41:31;;;;;;;11.68;6.43;;;8.30;77.70;;;;;;5047737;28;20104;-64
2023/12/27 05:43:57;;;;;;;14.00;7.00;;;8.30;78.00;;;;;;5031857;28;20421;-64
2023/12/27 05:46:23;;;;;;;18.15;8.40;;;8.30;77.80;;;;;;5048877;28;20083;-64
2023/12/27 05:48:49;;;;;;;15.02;7.80;;;8.30;77.80;;;;;;5049733;28;20025;-64
2023/12/27 05:51:14;;;;;;;13.13;7.18;;;8.30;77.80;;;;;;5042071;28;20026;-64
2023/12/27 05:53:41;;;;;;;13.13;6.60;;;8.30;77.80;;;;;;5050721;28;20450;-63
2023/12/27 05:56:07;;;;;;;16.20;6.07;;;8.30;77.80;;;;;;5053503;28;20025;-63
2023/12/27 05:58:33;;;;;;;16.10;6.18;;;8.30;77.90;;;;;;5054879;28;20353;-64
2023/12/27 06:00:59;;;;;;;15.98;7.15;;;8.30;77.90;;;;;;5046416;28;20032;-64
2023/12/27 06:03:24;;;;;;;16.05;7.20;;;8.30;77.90;;;;;;5054735;28;20024;-64
2023/12/27 06:05:50;;;;;;;12.82;6.80;;;8.30;78.00;;;;;;5054663;28;20025;-64
2023/12/27 06:08:18;;;;;;;12.68;6.85;;;8.30;78.00;;;;;;5053374;28;20036;-64
2023/12/27 06:10:45;;;;;;;16.90;7.50;;;8.30;78.10;;;;;;5054498;28;20052;-64
2023/12/27 06:13:10;;;;;;;17.33;7.30;;;8.30;78.00;;;;;;5053252;28;20055;-63
2023/12/27 06:15:36;;;;;;;13.75;7.03;;;8.30;78.10;;;;;;5054563;28;20025;-63
2023/12/27 06:18:02;;;;;;;17.05;6.20;;;8.30;78.10;;;;;;5054097;28;20036;-63
2023/12/27 06:20:28;;;;;;;14.48;6.88;;;8.40;78.20;;;;;;5052092;28;20032;-64
2023/12/27 06:22:53;;;;;;;16.98;6.03;;;8.40;78.20;;;;;;5037100;28;20029;-64
2023/12/27 06:25:19;;;;;;;12.60;6.00;;;8.40;78.20;;;;;;5052753;28;20021;-64
2023/12/27 06:27:45;;;;;;;13.65;6.47;;;8.30;78.20;;;;;;5053790;28;20442;-64
2023/12/27 06:30:11;;;;;;;17.17;6.57;;;8.40;78.20;;;;;;5053777;28;20039;-64
2023/12/27 06:32:37;;;;;;;13.95;6.88;;;8.40;78.20;;;;;;5053004;28;20043;-64
2023/12/27 06:35:03;;;;;;;14.60;6.35;;;8.40;78.20;;;;;;5053513;28;20059;-64
2023/12/27 06:37:29;;;;;;;13.75;6.88;;;8.40;78.20;;;;;;5054094;28;20029;-64
2023/12/27 06:39:54;;;;;;;11.13;5.28;;;8.50;78.20;;;;;;5053075;28;20037;-65
2023/12/27 06:42:21;;;;;;;14.85;5.97;;;8.50;78.20;;;;;;5054330;28;20408;-64
2023/12/27 06:44:47;;;;;;;13.57;6.50;;;8.50;78.20;;;;;;5040735;28;20030;-64
2023/12/27 06:47:12;;;;;;;13.52;5.95;;;8.50;78.20;;;;;;5051879;28;20033;-64
2023/12/27 06:49:38;;;;;;;15.05;5.90;;;8.50;78.30;;;;;;5054892;28;20469;-64
2023/12/27 06:52:04;;;;;;;18.38;7.38;;;8.50;78.30;;;;;;5054365;28;20028;-64
2023/12/27 06:54:30;;;;;;;13.15;6.40;;;8.50;78.30;;;;;;5036859;28;20063;-64
2023/12/27 06:56:56;;;;;;;14.68;6.10;;;8.40;78.40;;;;;;5053967;28;20044;-64
2023/12/27 06:59:21;;;;;;;15.52;7.55;;;8.50;78.50;;;;;;5053285;28;20021;-64
2023/12/27 07:01:47;;;;;;;13.15;6.22;;;8.50;78.50;;;;;;5053241;28;20040;-64
2023/12/27 07:04:13;;;;;;;15.95;7.75;;;8.50;78.60;;;;;;5053224;28;20054;-64
2023/12/27 07:06:39;;;;;;;15.70;5.93;;;8.50;78.70;;;;;;5054539;28;20033;-64
2023/12/27 07:09:05;;;;;;;16.67;6.60;;;8.50;78.60;;;;;;5053422;28;20094;-65
2023/12/27 07:11:30;;;;;;;18.55;6.65;;;8.50;78.70;;;;;;5053622;28;20086;-64
2023/12/27 07:13:56;;;;;;;13.15;6.10;;;8.50;78.80;;;;;;5054183;28;20388;-64
2023/12/27 07:16:22;;;;;;;14.07;5.88;;;8.60;78.90;;;;;;5053161;28;20028;-65
2023/12/27 07:18:48;;;;;;;12.65;6.32;;;8.60;78.90;;;;;;5050381;28;20357;-65
2023/12/27 07:21:13;;;;;;;12.77;5.70;;;8.70;78.90;;;;;;5051599;28;20020;-64
2023/12/27 07:23:39;;;;;;;15.55;6.25;;;8.70;78.70;;;;;;5033363;28;20066;-65
2023/12/27 07:26:05;;;;;;;15.43;6.28;;;8.80;78.80;;;;;;5035198;28;20388;-64
2023/12/27 07:28:30;;;;;;;14.48;6.20;;;8.80;78.70;;;;;;5051585;28;20119;-64
2023/12/27 07:30:57;;;;;;;12.55;5.40;;;8.80;78.70;;;;;;5029649;28;20427;-64
2023/12/27 07:33:23;;;;;;;11.88;5.93;;;8.80;78.80;;;;;;5049944;28;20060;-65
2023/12/27 07:35:49;;;;;;;14.70;6.33;;;8.80;78.80;;;;;;5051030;28;20072;-65
2023/12/27 07:38:15;;;;;;;14.85;6.47;;;8.80;78.80;;;;;;5048303;28;20024;-65
2023/12/27 07:40:41;;;;;;;11.90;5.35;;;8.80;79.00;;;;;;5050263;28;20040;-65
2023/12/27 07:43:09;;;;;;;12.55;6.18;;;8.80;79.00;;;;;;5049734;28;20107;-65
2023/12/27 07:45:36;;;;;;;14.10;5.63;;;8.80;79.10;;;;;;5052449;28;20138;-65
2023/12/27 07:48:02;;;;;;;15.90;5.68;;;8.80;79.10;;;;;;5053116;28;20351;-65
2023/12/27 07:50:28;;;;;;;15.63;6.03;;;8.80;79.10;;;;;;5051855;28;20021;-66
2023/12/27 07:52:54;;;;;;;13.23;5.72;;;8.80;79.10;;;;;;5055314;28;20453;-67
2023/12/27 07:55:19;;;;;;;15.52;6.55;;;8.80;79.20;;;;;;5054685;28;20041;-66
2023/12/27 07:57:46;;;;;;;14.00;5.68;;;8.80;79.20;;;;;;5057054;28;20112;-66
2023/12/27 08:00:15;;;;;;;13.50;6.03;;;8.80;79.30;;;;;;5046198;28;20033;-67
2023/12/27 08:02:41;;;;;;;18.60;5.90;;;8.80;80.00;;;;;;5050289;28;20457;-67
2023/12/27 08:05:07;;;;;;;11.93;5.82;;;8.80;79.30;;;;;;5057578;28;20457;-68
2023/12/27 08:07:33;;;;;;;12.45;6.10;;;8.80;79.30;;;;;;5056369;28;20032;-67
2023/12/27 08:09:59;;;;;;;15.25;6.75;;;8.70;79.30;;;;;;5057203;28;20032;-68
2023/12/27 08:12:25;;;;;;;14.15;6.30;;;8.70;79.40;;;;;;5057011;28;20029;-68
2023/12/27 08:14:50;;;;;;;12.18;5.03;;;8.80;79.60;;;;;;5054833;28;20354;-68
2023/12/27 08:17:16;;;;;;;14.32;5.88;;;8.70;79.60;;;;;;5057219;28;20460;-68
2023/12/27 08:19:42;;;;;;;11.27;4.95;;;8.70;79.60;;;;;;5056673;28;20395;-68
2023/12/27 08:22:07;;;;;;;11.82;4.75;;;8.70;79.60;;;;;;5057071;28;20500;-68
2023/12/27 08:24:33;;;;;;;12.43;5.53;;;8.70;79.70;;;;;;5056074;28;20115;-68
2023/12/27 08:26:59;;;;;;;11.02;5.03;;;8.70;79.80;;;;;;5056945;28;20025;-68
2023/12/27 08:29:25;;;;;;;12.55;5.20;;;8.80;79.80;;;;;;5056611;28;20479;-68
2023/12/27 08:31:51;;;;;;;12.52;5.40;;;8.70;79.80;;;;;;5056614;28;20106;-68
2023/12/27 08:34:17;;;;;;;13.27;5.57;;;8.70;79.80;;;;;;5056997;28;20441;-68
2023/12/27 08:36:45;;;;;;;13.90;5.30;;;8.80;79.90;;;;;;5055033;28;20476;-68
2023/12/27 08:39:11;;;;;;;10.82;5.25;;;8.80;80.00;;;;;;5056250;28;20407;-68
2023/12/27 08:41:37;;;;;;;12.57;6.15;;;8.80;80.00;;;;;;5056346;28;20084;-68
2023/12/27 08:44:04;;;;;;;16.27;6.63;;;8.70;80.00;;;;;;5055428;28;20473;-68
2023/12/27 08:46:30;;;;;;;12.68;6.43;;;8.80;80.10;;;;;;5055263;28;20199;-68
2023/12/27 08:48:55;;;;;;;12.25;6.00;;;8.80;80.20;;;;;;5042588;28;20122;-68
2023/12/27 08:51:21;;;;;;;13.70;5.80;;;8.80;80.30;;;;;;5060156;28;20467;-68
2023/12/27 08:53:47;;;;;;;12.75;5.85;;;8.80;80.30;;;;;;5045352;28;20053;-68
2023/12/27 08:56:13;;;;;;;15.27;6.05;;;8.80;80.30;;;;;;5054489;28;20060;-68
2023/12/27 08:58:38;;;;;;;12.48;6.35;;;8.80;80.40;;;;;;5056035;28;20046;-68
2023/12/27 09:01:04;;;;;;;10.57;5.75;;;8.80;80.40;;;;;;5055964;28;20033;-68
2023/12/27 09:03:30;;;;;;;12.50;6.00;;;8.80;80.50;;;;;;5054060;28;20013;-68
2023/12/27 09:05:56;;;;;;;10.48;5.93;;;8.80;80.50;;;;;;5036725;28;20029;-68
2023/12/27 09:08:21;;;;;;;9.48;5.47;;;8.90;80.60;;;;;;5055806;28;20021;-67
2023/12/27 09:10:47;;;;;;;13.07;5.72;;;8.80;80.60;;;;;;5056292;28;20025;-68
2023/12/27 09:13:13;;;;;;;11.65;6.05;;;8.90;80.80;;;;;;5054256;28;20021;-67
2023/12/27 09:15:39;;;;;;;10.88;5.90;;;8.90;81.50;;;;;;5056211;28;20343;-67
2023/12/27 09:18:05;;;;;;;11.73;5.63;;;8.90;80.80;;;;;;5054896;28;20109;-67
2023/12/27 09:20:31;;;;;;;8.88;5.57;;;8.90;80.80;;;;;;5054967;28;20039;-67
2023/12/27 09:22:56;;;;;;;10.77;5.70;;;8.90;80.80;;;;;;5056194;28;20025;-67
2023/12/27 09:25:22;;;;;;;9.27;5.45;;;8.90;80.80;;;;;;5036538;28;20020;-67
2023/12/27 09:27:48;;;;;;;12.15;5.57;;;9.00;81.00;;;;;;5055117;28;20098;-67
2023/12/27 09:30:14;;;;;;;13.10;6.20;;;8.90;81.00;;;;;;5051733;28;20032;-66
2023/12/27 09:32:42;;;;;;;12.20;6.22;;;9.00;81.00;;;;;;5055594;28;20033;-67
2023/12/27 09:35:08;;;;;;;12.63;6.53;;;9.00;81.20;;;;;;5047091;28;20021;-67
2023/12/27 09:37:35;;;;;;;12.20;6.43;;;9.00;81.20;;;;;;5054555;28;20043;-67
2023/12/27 09:40:01;;;;;;;12.30;5.97;;;9.00;81.30;;;;;;5054656;28;20099;-67
2023/12/27 09:42:29;;;;;;;11.73;5.70;;;9.10;81.40;;;;;;5055323;28;20442;-66
2023/12/27 09:44:57;;;;;;;12.10;6.10;;;9.10;81.40;;;;;;5048981;28;20029;-67
2023/12/27 09:47:25;;;;;;;11.88;5.85;;;9.10;82.10;;;;;;5044906;28;20033;-67
2023/12/27 09:49:54;;;;;;;10.02;5.35;;;9.10;81.50;;;;;;5053718;28;20128;-67
2023/12/27 09:52:21;;;;;;;8.82;5.82;;;9.20;81.50;;;;;;5055051;28;20021;-67
2023/12/27 09:54:47;;;;;;;9.02;5.03;;;9.20;81.50;;;;;;5055028;28;20082;-67
2023/12/27 09:57:13;;;;;;;10.63;5.72;;;9.20;81.50;;;;;;5054629;28;20115;-67
2023/12/27 09:59:45;;;;;;;9.13;5.50;;;9.30;81.60;;;;;;5041408;28;20029;-67
2023/12/27 10:02:17;;;;;;;9.52;6.07;;;9.30;82.30;;;;;;5055091;28;20040;-67
2023/12/27 10:05:05;;;;;;;8.75;5.03;;;9.30;81.80;;;;;;5055178;28;20020;-66
2023/12/27 10:07:32;;;;;;;9.93;5.45;;;9.40;81.80;;;;;;5049800;28;20040;-67
2023/12/27 10:09:59;;;;;;;10.20;5.40;;;9.40;81.80;;;;;;5054706;28;20070;-66
2023/12/27 10:12:25;;;;;;;9.50;5.82;;;9.40;81.70;;;;;;5054906;28;20130;-66
2023/12/27 10:14:52;;;;;;;11.55;6.78;;;9.50;81.80;;;;;;5039672;28;20481;-67
2023/12/27 10:17:18;;;;;;;11.40;5.75;;;9.50;81.90;;;;;;5054600;28;20037;-66
2023/12/27 10:19:47;;;;;;;8.63;5.20;;;9.50;81.90;;;;;;5052600;28;20040;-66
2023/12/27 10:22:13;;;;;;;8.93;5.40;;;9.60;82.00;;;;;;5050806;28;20022;-67
2023/12/27 10:24:39;;;;;;;9.27;5.20;;;9.60;81.90;;;;;;5050587;28;20098;-67
2023/12/27 10:27:06;;;;;;;8.95;5.13;;;9.60;81.90;;;;;;5050820;28;20047;-67
2023/12/27 10:29:33;;;;;;;8.40;5.07;;;9.60;81.90;;;;;;5055631;28;20502;-63
2023/12/27 10:31:59;;;;;;;9.18;5.22;;;9.70;82.00;;;;;;5046353;28;20025;-63
2023/12/27 10:34:26;;;;;;;8.23;4.88;;;9.70;82.00;;;;;;5053512;28;20047;-63
2023/12/27 10:36:52;;;;;;;9.30;5.35;;;9.70;82.00;;;;;;5048032;28;20037;-63
2023/12/27 10:39:18;;;;;;;9.90;5.25;;;9.80;82.10;;;;;;5055382;28;20028;-66
2023/12/27 10:41:44;;;;;;;12.50;5.75;;;9.70;82.10;;;;;;5054002;28;20041;-67
2023/12/27 10:44:11;;;;;;;8.32;4.95;;;9.80;82.20;;;;;;5054048;28;20025;-67
2023/12/27 10:46:39;;;;;;;8.93;5.55;;;9.80;82.20;;;;;;5053287;28;20040;-67
2023/12/27 10:49:05;;;;;;;10.18;4.88;;;9.80;82.20;;;;;;5053772;28;20107;-67
2023/12/27 10:51:37;;;;;;;8.77;4.85;;;9.80;82.30;;;;;;5047622;28;20040;-67
2023/12/27 10:54:04;;;;;;;9.75;4.50;;;9.90;82.30;;;;;;5055000;28;20025;-67
2023/12/27 10:56:38;;;;;;;9.57;4.95;;;9.90;82.30;;;;;;5065354;28;20108;-67
2023/12/27 10:59:08;;;;;;;8.88;4.82;;;9.90;82.40;;;;;;5054270;28;20072;-67
2023/12/27 11:01:43;;;;;;;7.93;4.90;;;9.90;82.40;;;;;;5048623;28;20017;-67
2023/12/27 11:04:10;;;;;;;8.30;4.90;;;9.90;82.40;;;;;;5054027;28;20032;-67
2023/12/27 11:06:37;;;;;;;10.48;5.35;;;9.90;82.40;;;;;;5074252;28;20033;-67
2023/12/27 11:09:09;;;;;;;10.70;5.45;;;9.90;82.40;;;;;;5057365;28;20458;-67
2023/12/27 11:11:39;;;;;;;9.25;5.07;;;9.90;82.50;;;;;;5050218;28;20024;-63
2023/12/27 11:14:08;;;;;;;8.65;4.78;;;10.00;82.50;;;;;;5050259;28;20111;-63
2023/12/27 11:16:35;;;;;;;10.35;5.15;;;10.00;82.50;;;;;;5064630;28;20029;-64
2023/12/27 11:19:06;;;;;;;7.97;4.45;;;10.00;82.40;;;;;;5060536;28;20016;-63
2023/12/27 11:21:33;;;;;;;10.93;4.15;;;10.00;82.40;;;;;;5077095;28;20461;-64
2023/12/27 11:23:59;;;;;;;10.07;4.47;;;10.00;82.50;;;;;;5073932;28;20433;-63
2023/12/27 11:26:26;;;;;;;7.78;3.90;;;10.00;82.50;;;;;;5065906;28;20051;-63
2023/12/27 11:28:52;;;;;;;9.70;4.38;;;10.10;82.50;;;;;;5076479;28;20032;-63
2023/12/27 11:31:19;;;;;;;9.80;3.95;;;10.10;82.50;;;;;;5076733;28;20479;-63
2023/12/27 11:33:46;;;;;;;7.78;3.90;;;10.10;82.60;;;;;;5078048;28;20029;-63
2023/12/27 11:36:12;;;;;;;9.45;4.32;;;10.10;82.50;;;;;;5076808;28;20044;-64
2023/12/27 11:38:39;;;;;;;7.43;3.80;;;10.10;82.50;;;;;;5073411;28;20025;-63
2023/12/27 11:41:06;;;;;;;7.00;3.70;;;10.20;82.50;;;;;;5074892;28;20036;-63
2023/12/27 11:44:03;;;;;;;8.50;3.60;;;10.20;82.50;;;;;;5076441;28;20032;-64
2023/12/27 11:46:30;;;;;;;7.75;3.92;;;10.20;82.50;;;;;;5076183;28;20036;-63
2023/12/27 11:48:58;;;;;;;7.53;3.60;;;10.20;82.50;;;;;;5077568;28;20096;-64
2023/12/27 11:51:36;;;;;;;6.95;3.53;;;10.20;82.50;;;;;;5073701;28;20071;-64
2023/12/27 11:54:03;;;;;;;9.88;3.65;;;10.20;82.60;;;;;;5063880;28;20053;-64
2023/12/27 11:56:31;;;;;;;8.82;4.15;;;10.30;82.60;;;;;;5057312;28;20358;-64
2023/12/27 11:58:58;;;;;;;6.72;3.13;;;10.30;82.60;;;;;;5057179;28;20537;-63
2023/12/27 12:01:39;;;;;;;7.82;3.60;;;10.30;82.50;;;;;;5057405;28;20104;-63
2023/12/27 12:04:37;;;;;;;9.05;3.38;;;10.30;82.50;;;;;;5056892;28;20033;-63
2023/12/27 12:07:42;;;;;;;8.73;3.47;;;10.40;82.50;;;;;;5025223;28;20101;-64
2023/12/27 12:10:21;;;;;;;6.90;3.47;;;10.40;82.40;;;;;;5052266;28;20065;-64
2023/12/27 12:12:49;;;;;;;8.07;3.70;;;10.40;82.40;;;;;;5055364;28;20449;-62
2023/12/27 12:15:15;;;;;;;7.75;3.53;;;10.40;82.40;;;;;;5066294;28;20516;-63
2023/12/27 12:17:42;;;;;;;8.40;3.22;;;10.40;82.40;;;;;;5049889;28;20052;-63
2023/12/27 12:20:09;;;;;;;8.60;3.35;;;10.50;82.50;;;;;;5058855;28;20029;-62
2023/12/27 12:22:35;;;;;;;7.63;3.25;;;10.50;82.50;;;;;;5056600;28;20017;-63
2023/12/27 12:25:07;;;;;;;8.50;3.70;;;10.50;82.50;;;;;;5046159;28;20033;-62
2023/12/27 12:27:33;;;;;;;7.97;3.53;;;10.50;82.50;;;;;;5031314;28;20025;-62
2023/12/27 12:29:59;;;;;;;7.97;3.38;;;10.50;82.50;;;;;;5056671;28;20112;-62
2023/12/27 12:32:25;;;;;;;7.43;3.13;;;10.60;82.50;;;;;;5046874;28;20045;-62
2023/12/27 12:34:51;;;;;;;6.47;3.03;;;10.60;82.50;;;;;;5053797;28;20029;-62
2023/12/27 12:37:17;;;;;;;6.65;2.67;;;10.60;82.50;;;;;;5055573;28;20048;-62
2023/12/27 12:39:46;;;;;;;6.90;3.15;;;10.60;82.50;;;;;;5056339;28;20036;-63
2023/12/27 12:42:12;;;;;;;7.78;2.92;;;10.60;82.50;;;;;;5038285;28;20041;-62
2023/12/27 12:44:38;;;;;;;7.25;3.00;;;10.70;82.60;;;;;;5053290;28;20078;-63